Aviation Digital Data Service (ADDS)

Output produced by METARs form (0640 UTC 24 March 2019)
found at http://www.aviationweather.gov/metar/data/
 
LQBK 240630Z 16003KT CAVOK 06/04 Q1024 NOSIG
TAF LQBK 240500Z 2406/2506 06005KT CAVOK TX22/2414Z TN02/2406Z
       
LQMO 240600Z 14003KT 050V220 CAVOK 07/02 Q1021
TAF LQMO 240500Z 2406/2506 03005KT CAVOK TX26/2414Z TN06/2505Z 
     TEMPO 2414/2417 23012KT
       
LQSA 240630Z VRB02KT 7000 NSC 02/02 Q1025 NOSIG
TAF LQSA 240500Z 2406/2506 VRB02KT CAVOK TX23/2414Z TN00/2504Z
       
LQTZ 240630Z VRB02KT 7000 NSC 04/02 Q1024
TAF LQTZ 240500Z 2406/2506 09005KT CAVOK TX22/2414Z TNM00/2505Z 
     TEMPO 2406/2407 2500 BR 
     PROB40 
     TEMPO 2503/2506 2000 BR